Time;durP1;ratioP1;P1;durP2;ratioP2;P2;SDS_P1;SDS_P2;PMS_P1;PMS_P2;Temp;Humidity;BMP_temperature;BMP_pressure;BME280_temperature;BME280_humidity;BME280_pressure;Samples;Min_cycle;Max_cycle;Signal;HPM_P1;HPM_P2
2021/10/21 00:00:22;;;;;;;5.97;4.50;;;;;;;;;;5031850;28;20517;-67
2021/10/21 00:02:48;;;;;;;6.43;4.33;;;;;;;;;;5010810;28;20595;-68
2021/10/21 00:05:16;;;;;;;6.53;4.17;;;;;;;;;;5027981;28;20239;-67
2021/10/21 00:07:45;;;;;;;4.27;3.87;;;;;;;;;;5008890;28;20614;-68
2021/10/21 00:10:12;;;;;;;7.23;4.20;;;;;;;;;;5017340;28;20193;-67
2021/10/21 00:12:44;;;;;;;9.13;4.50;;;;;;;;;;5015037;28;20228;-67
2021/10/21 00:15:11;;;;;;;4.57;4.00;;;;;;;;;;5011347;28;20194;-69
2021/10/21 00:17:38;;;;;;;4.87;4.10;;;;;;;;;;5028146;28;20253;-69
2021/10/21 00:20:06;;;;;;;8.50;4.73;;;;;;;;;;5015509;28;20181;-64
2021/10/21 00:22:32;;;;;;;4.73;4.27;;;;;;;;;;5009428;28;20225;-63
2021/10/21 00:25:04;;;;;;;6.43;4.77;;;;;;;;;;5010402;28;20760;-63
2021/10/21 00:27:33;;;;;;;5.47;4.37;;;;;;;;;;5033698;28;20577;-64
2021/10/21 00:30:05;;;;;;;6.60;4.27;;;;;;;;;;5014054;28;20209;-65
2021/10/21 00:32:44;;;;;;;6.20;3.80;;;;;;;;;;5011136;28;20284;-67
2021/10/21 00:35:11;;;;;;;9.33;4.37;;;;;;;;;;5026210;28;21639;-66
2021/10/21 00:37:37;;;;;;;6.40;3.80;;;;;;;;;;5009201;28;20232;-67
2021/10/21 00:40:05;;;;;;;5.80;4.20;;;;;;;;;;5013546;28;20563;-65
2021/10/21 00:42:31;;;;;;;5.07;3.87;;;;;;;;;;5014067;28;20279;-65
2021/10/21 00:45:03;;;;;;;6.27;3.57;;;;;;;;;;5009924;28;20181;-64
2021/10/21 00:47:30;;;;;;;5.67;3.90;;;;;;;;;;5010331;28;20571;-65
2021/10/21 00:49:56;;;;;;;5.87;4.53;;;;;;;;;;5037346;28;20269;-66
2021/10/21 00:52:24;;;;;;;7.80;4.33;;;;;;;;;;5013805;28;20261;-65
2021/10/21 00:54:51;;;;;;;5.93;4.20;;;;;;;;;;5006819;28;20553;-65
2021/10/21 00:57:18;;;;;;;4.67;3.97;;;;;;;;;;5007798;28;20188;-65
2021/10/21 00:59:47;;;;;;;5.70;4.57;;;;;;;;;;5008508;28;20551;-67
2021/10/21 01:02:14;;;;;;;7.70;4.27;;;;;;;;;;5009819;28;20232;-69
2021/10/21 01:04:40;;;;;;;7.40;4.40;;;;;;;;;;5009228;28;20377;-69
2021/10/21 01:07:14;;;;;;;5.33;3.83;;;;;;;;;;5009806;28;20628;-70
2021/10/21 01:09:43;;;;;;;4.27;3.87;;;;;;;;;;5025948;28;20183;-67
2021/10/21 01:12:15;;;;;;;5.50;4.07;;;;;;;;;;5009624;28;20185;-72
2021/10/21 01:14:43;;;;;;;8.07;3.83;;;;;;;;;;5017084;28;20257;-69
2021/10/21 01:17:09;;;;;;;4.57;3.27;;;;;;;;;;5009058;28;20540;-68
2021/10/21 01:19:35;;;;;;;3.67;2.73;;;;;;;;;;5018688;28;20177;-68
2021/10/21 01:22:02;;;;;;;4.00;3.20;;;;;;;;;;5011805;28;20191;-67
2021/10/21 01:24:28;;;;;;;5.57;3.43;;;;;;;;;;5009280;28;20197;-68
2021/10/21 01:26:57;;;;;;;4.67;3.20;;;;;;;;;;5012731;28;20188;-68
2021/10/21 01:29:31;;;;;;;7.37;2.83;;;;;;;;;;5008887;28;20302;-69
2021/10/21 01:32:00;;;;;;;6.07;2.60;;;;;;;;;;5010191;28;20200;-69
2021/10/21 01:34:27;;;;;;;4.73;2.90;;;;;;;;;;5026196;28;20212;-68
2021/10/21 01:36:54;;;;;;;4.47;2.70;;;;;;;;;;5013887;28;20230;-68
2021/10/21 01:39:21;;;;;;;3.00;2.73;;;;;;;;;;5010559;28;20366;-68
2021/10/21 01:41:48;;;;;;;3.53;2.47;;;;;;;;;;5008221;28;20558;-69
2021/10/21 01:44:16;;;;;;;3.57;2.07;;;;;;;;;;5025870;28;20188;-69
2021/10/21 01:46:42;;;;;;;3.07;2.20;;;;;;;;;;5008896;28;20185;-68
2021/10/21 01:49:11;;;;;;;2.50;1.70;;;;;;;;;;5007952;28;20633;-70
2021/10/21 01:51:43;;;;;;;4.27;2.10;;;;;;;;;;5007308;28;20745;-69
2021/10/21 01:54:09;;;;;;;2.50;1.97;;;;;;;;;;5026847;28;20171;-70
2021/10/21 01:56:39;;;;;;;3.17;1.80;;;;;;;;;;5007481;28;20252;-70
2021/10/21 01:59:17;;;;;;;2.73;1.93;;;;;;;;;;5029310;28;20190;-70
2021/10/21 02:01:45;;;;;;;2.87;2.00;;;;;;;;;;5010312;28;20254;-71
2021/10/21 02:04:11;;;;;;;3.30;1.67;;;;;;;;;;5012105;28;20186;-70
2021/10/21 02:06:38;;;;;;;2.40;1.67;;;;;;;;;;5007938;28;20536;-70
2021/10/21 02:09:09;;;;;;;3.47;1.73;;;;;;;;;;5005988;28;20198;-71
2021/10/21 02:11:40;;;;;;;3.00;2.00;;;;;;;;;;5025808;28;20174;-71
2021/10/21 02:14:09;;;;;;;2.97;1.77;;;;;;;;;;5006820;28;20662;-70
2021/10/21 02:16:46;;;;;;;4.27;1.90;;;;;;;;;;5007871;28;20189;-73
2021/10/21 02:19:12;;;;;;;1.73;1.50;;;;;;;;;;5009757;28;20188;-71
2021/10/21 02:21:41;;;;;;;3.10;1.57;;;;;;;;;;5015035;28;20189;-69
2021/10/21 02:24:07;;;;;;;1.93;1.70;;;;;;;;;;5010703;28;20284;-71
2021/10/21 02:26:37;;;;;;;2.97;1.87;;;;;;;;;;5008637;28;20580;-71
2021/10/21 02:29:03;;;;;;;1.73;1.33;;;;;;;;;;5007128;28;20289;-69
2021/10/21 02:31:35;;;;;;;1.50;1.23;;;;;;;;;;5007333;28;20179;-71
2021/10/21 02:34:02;;;;;;;3.60;1.80;;;;;;;;;;5006798;28;20597;-68
2021/10/21 02:36:35;;;;;;;1.70;1.40;;;;;;;;;;5025337;28;20179;-70
2021/10/21 02:39:25;;;;;;;2.83;1.63;;;;;;;;;;5007393;28;21132;-67
2021/10/21 02:41:51;;;;;;;2.50;1.40;;;;;;;;;;5026441;28;20180;-68
2021/10/21 02:44:18;;;;;;;2.17;1.40;;;;;;;;;;5008653;28;20656;-70
2021/10/21 02:46:47;;;;;;;4.20;1.37;;;;;;;;;;5030293;28;20226;-68
2021/10/21 02:49:24;;;;;;;1.50;1.40;;;;;;;;;;5010287;28;20297;-70
2021/10/21 02:51:51;;;;;;;3.83;2.63;;;;;;;;;;5010623;28;20197;-72
2021/10/21 02:54:17;;;;;;;3.20;2.20;;;;;;;;;;5008108;28;20293;-68
2021/10/21 02:56:43;;;;;;;4.03;1.47;;;;;;;;;;5011551;28;20178;-71
2021/10/21 02:59:09;;;;;;;2.33;1.37;;;;;;;;;;5010191;28;20711;-71
2021/10/21 03:01:39;;;;;;;2.50;1.50;;;;;;;;;;5012468;28;20612;-74
2021/10/21 03:04:05;;;;;;;2.20;1.30;;;;;;;;;;5015616;28;20205;-71
2021/10/21 03:06:31;;;;;;;4.90;1.53;;;;;;;;;;5011990;28;20221;-72
2021/10/21 03:09:01;;;;;;;3.67;1.40;;;;;;;;;;5011208;28;20185;-70
2021/10/21 03:11:27;;;;;;;1.77;1.03;;;;;;;;;;5011919;28;20192;-69
2021/10/21 03:13:53;;;;;;;3.30;1.60;;;;;;;;;;5005313;28;20182;-70
2021/10/21 03:16:22;;;;;;;5.57;2.43;;;;;;;;;;5011024;28;20205;-74
2021/10/21 03:18:48;;;;;;;2.00;1.20;;;;;;;;;;5009941;28;20328;-69
2021/10/21 03:21:17;;;;;;;3.47;1.40;;;;;;;;;;5010630;28;20174;-70
2021/10/21 03:23:49;;;;;;;4.60;2.27;;;;;;;;;;5010501;28;20166;-71
2021/10/21 03:26:18;;;;;;;3.63;1.27;;;;;;;;;;5010097;28;20186;-67
2021/10/21 03:28:45;;;;;;;2.10;1.73;;;;;;;;;;5011534;28;20174;-70
2021/10/21 03:31:11;;;;;;;3.13;2.33;;;;;;;;;;5008366;28;20268;-69
2021/10/21 03:33:37;;;;;;;3.00;1.60;;;;;;;;;;5009634;28;20225;-69
2021/10/21 03:36:04;;;;;;;2.83;1.43;;;;;;;;;;5010229;28;20701;-68
2021/10/21 03:38:31;;;;;;;2.93;1.20;;;;;;;;;;5010253;28;20216;-67
2021/10/21 03:41:00;;;;;;;2.77;1.37;;;;;;;;;;5012530;28;20646;-69
2021/10/21 03:43:27;;;;;;;2.07;1.60;;;;;;;;;;5008932;28;20178;-66
2021/10/21 03:45:58;;;;;;;5.50;1.53;;;;;;;;;;5010018;28;20293;-71
2021/10/21 03:48:30;;;;;;;2.73;1.03;;;;;;;;;;5027634;28;20244;-67
2021/10/21 03:50:57;;;;;;;3.80;1.20;;;;;;;;;;5013185;28;20452;-69
2021/10/21 03:56:13;;;;;;;3.70;1.27;;;;;;;;;;5030811;28;20777;-66
2021/10/21 03:58:44;;;;;;;4.77;1.67;;;;;;;;;;5008618;28;20584;-67
2021/10/21 04:01:10;;;;;;;3.33;1.40;;;;;;;;;;5009838;28;20174;-69
2021/10/21 04:03:37;;;;;;;2.70;1.17;;;;;;;;;;5022090;28;20178;-70
2021/10/21 04:06:03;;;;;;;1.43;1.33;;;;;;;;;;5009453;28;20727;-72
2021/10/21 04:08:29;;;;;;;3.87;1.30;;;;;;;;;;5009573;28;20190;-69
2021/10/21 04:10:59;;;;;;;3.70;1.60;;;;;;;;;;5014781;28;20178;-71
2021/10/21 04:13:31;;;;;;;4.67;1.40;;;;;;;;;;5008538;28;20277;-72
2021/10/21 04:16:19;;;;;;;2.93;1.40;;;;;;;;;;5014214;28;20237;-68
2021/10/21 04:18:45;;;;;;;4.93;1.30;;;;;;;;;;5007932;28;20253;-66
2021/10/21 04:21:14;;;;;;;6.00;2.63;;;;;;;;;;5009213;28;20166;-68
2021/10/21 04:23:41;;;;;;;3.30;1.30;;;;;;;;;;5009515;28;20190;-68
2021/10/21 04:26:07;;;;;;;1.77;1.10;;;;;;;;;;5010569;28;20189;-70
2021/10/21 04:28:33;;;;;;;2.10;1.47;;;;;;;;;;5008091;28;20692;-67
2021/10/21 04:31:10;;;;;;;1.97;1.03;;;;;;;;;;5009296;28;20540;-67
2021/10/21 04:33:48;;;;;;;2.57;1.30;;;;;;;;;;5026477;28;20656;-67
2021/10/21 04:36:16;;;;;;;2.97;1.20;;;;;;;;;;4964645;28;20285;-65
2021/10/21 04:38:43;;;;;;;2.33;1.27;;;;;;;;;;4951823;28;21112;-69
2021/10/21 04:41:19;;;;;;;2.97;1.17;;;;;;;;;;4953648;28;20599;-66
2021/10/21 04:43:57;;;;;;;5.50;1.90;;;;;;;;;;4944982;28;20342;-67
2021/10/21 04:46:34;;;;;;;4.20;1.67;;;;;;;;;;4964590;28;20168;-67
2021/10/21 04:49:03;;;;;;;1.83;1.10;;;;;;;;;;4949800;28;20226;-67
2021/10/21 04:51:29;;;;;;;5.30;2.00;;;;;;;;;;4965942;28;20208;-66
2021/10/21 04:54:01;;;;;;;2.57;1.00;;;;;;;;;;4951651;28;20192;-67
2021/10/21 04:56:37;;;;;;;3.47;1.23;;;;;;;;;;4945069;28;20393;-68
2021/10/21 04:59:06;;;;;;;1.50;1.20;;;;;;;;;;4936523;28;20234;-69
2021/10/21 05:01:32;;;;;;;2.47;1.37;;;;;;;;;;4993699;28;20291;-67
2021/10/21 05:04:02;;;;;;;2.07;0.90;;;;;;;;;;5013005;28;20255;-68
2021/10/21 05:06:31;;;;;;;2.10;1.10;;;;;;;;;;5007956;28;20564;-67
2021/10/21 05:09:01;;;;;;;3.03;1.10;;;;;;;;;;5016336;28;20180;-69
2021/10/21 05:11:30;;;;;;;2.57;1.20;;;;;;;;;;5004291;28;20241;-68
2021/10/21 05:13:57;;;;;;;3.03;1.00;;;;;;;;;;5026135;28;20485;-68
2021/10/21 05:16:23;;;;;;;2.73;1.00;;;;;;;;;;5009034;28;20201;-70
2021/10/21 05:18:49;;;;;;;0.90;0.80;;;;;;;;;;5008458;28;20174;-69
2021/10/21 05:21:16;;;;;;;2.20;1.00;;;;;;;;;;5028097;28;20665;-68
2021/10/21 05:23:58;;;;;;;;;;;;;;;;;;;;;
2021/10/21 05:26:24;;;;;;;0.70;0.70;;;;;;;;;;5024474;28;20501;-73
2021/10/21 05:28:53;;;;;;;1.40;0.60;;;;;;;;;;5025944;28;20185;-69
2021/10/21 05:31:26;;;;;;;1.07;0.80;;;;;;;;;;5008077;28;20174;-68
2021/10/21 05:33:53;;;;;;;1.20;0.80;;;;;;;;;;5007089;28;20202;-68
2021/10/21 05:36:28;;;;;;;1.90;0.83;;;;;;;;;;5007663;28;20214;-68
2021/10/21 05:38:57;;;;;;;1.50;0.73;;;;;;;;;;5005441;28;20174;-69
2021/10/21 05:41:24;;;;;;;1.97;0.80;;;;;;;;;;5009486;28;20503;-68
2021/10/21 05:44:01;;;;;;;1.70;0.83;;;;;;;;;;5004964;28;20170;-68
2021/10/21 05:46:39;;;;;;;1.93;1.00;;;;;;;;;;5003192;28;20248;-68
2021/10/21 05:49:05;;;;;;;0.70;0.70;;;;;;;;;;5024608;28;20652;-68
2021/10/21 05:51:31;;;;;;;2.93;0.90;;;;;;;;;;5025338;28;20667;-67
2021/10/21 05:54:01;;;;;;;1.80;0.93;;;;;;;;;;5025441;28;20215;-68
2021/10/21 05:56:30;;;;;;;0.93;0.93;;;;;;;;;;5008365;28;20625;-68
2021/10/21 05:59:00;;;;;;;1.40;0.80;;;;;;;;;;5003814;28;20613;-67
2021/10/21 06:01:35;;;;;;;2.30;1.00;;;;;;;;;;5007424;28;20235;-67
2021/10/21 06:04:02;;;;;;;1.13;0.90;;;;;;;;;;5003301;28;20188;-67
2021/10/21 06:06:37;;;;;;;1.97;0.80;;;;;;;;;;5009512;28;20287;-68
2021/10/21 06:09:21;;;;;;;;;;;;;;;;;;;;;
2021/10/21 06:11:55;;;;;;;2.20;1.00;;;;;;;;;;5019141;28;20660;-66
2021/10/21 06:14:25;;;;;;;3.10;1.43;;;;;;;;;;5002068;28;20674;-66
2021/10/21 06:16:51;;;;;;;2.77;1.73;;;;;;;;;;5001423;28;20178;-67
2021/10/21 06:22:12;;;;;;;3.73;2.07;;;;;;;;;;5025327;28;20217;-67
2021/10/21 06:24:55;;;;;;;;;;;;;;;;;;;;;
2021/10/21 06:27:21;;;;;;;4.93;1.80;;;;;;;;;;5016199;28;20178;-67
2021/10/21 06:29:50;;;;;;;5.23;2.17;;;;;;;;;;5029453;28;20189;-67
2021/10/21 06:32:31;;;;;;;2.57;1.67;;;;;;;;;;5008802;28;20604;-67
2021/10/21 06:35:15;;;;;;;3.63;1.53;;;;;;;;;;5025526;28;20194;-69
2021/10/21 06:37:52;;;;;;;;;;;;;;;;;;;;;
2021/10/21 06:40:26;;;;;;;2.30;1.10;;;;;;;;;;5027887;28;20178;-68
2021/10/21 06:42:55;;;;;;;2.13;0.90;;;;;;;;;;5008494;28;20212;-68
2021/10/21 06:45:23;;;;;;;3.77;1.00;;;;;;;;;;5009450;28;20281;-66
2021/10/21 06:47:49;;;;;;;1.50;0.80;;;;;;;;;;5036369;28;20237;-65
2021/10/21 06:50:19;;;;;;;3.33;0.80;;;;;;;;;;5039293;28;20577;-67
2021/10/21 06:52:49;;;;;;;1.60;0.80;;;;;;;;;;5004714;28;20209;-69
2021/10/21 06:55:32;;;;;;;;;;;;;;;;;;;;;
2021/10/21 06:57:58;;;;;;;1.80;1.00;;;;;;;;;;5027922;28;20681;-70
2021/10/21 07:00:28;;;;;;;1.63;0.77;;;;;;;;;;5013662;28;20211;-71
2021/10/21 07:03:01;;;;;;;1.00;0.90;;;;;;;;;;5034792;28;20569;-69
2021/10/21 07:06:02;;;;;;;0.97;0.90;;;;;;;;;;5009021;28;20224;-70
2021/10/21 07:08:35;;;;;;;2.00;0.90;;;;;;;;;;5006616;28;20209;-71
2021/10/21 07:11:04;;;;;;;1.20;1.00;;;;;;;;;;5010072;28;20266;-69
2021/10/21 07:13:33;;;;;;;0.80;0.80;;;;;;;;;;5008451;28;20178;-69
2021/10/21 07:16:15;;;;;;;2.40;1.10;;;;;;;;;;5024894;28;20238;-70
2021/10/21 07:18:47;;;;;;;1.70;1.00;;;;;;;;;;5011318;28;20177;-69
2021/10/21 07:21:43;;;;;;;;;;;;;;;;;;;;;
2021/10/21 07:24:05;;;;;;;0.93;0.80;;;;;;;;;;5026710;28;20176;-69
2021/10/21 07:26:44;;;;;;;;;;;;;;;;;;;;;
2021/10/21 07:29:16;;;;;;;1.70;1.07;;;;;;;;;;5017662;28;20580;-69
2021/10/21 07:31:48;;;;;;;4.63;1.60;;;;;;;;;;5010555;28;20202;-69
2021/10/21 07:34:27;;;;;;;1.80;0.97;;;;;;;;;;5010320;28;20619;-70
2021/10/21 07:37:00;;;;;;;3.30;1.23;;;;;;;;;;5011186;28;20239;-69
2021/10/21 07:39:26;;;;;;;4.50;1.20;;;;;;;;;;5011301;28;20596;-69
2021/10/21 07:45:10;;;;;;;2.73;1.50;;;;;;;;;;5007234;28;20194;-70
2021/10/21 07:47:40;;;;;;;2.70;1.40;;;;;;;;;;5013467;28;20556;-69
2021/10/21 07:53:09;;;;;;;4.63;1.83;;;;;;;;;;4971613;28;20235;-70
2021/10/21 07:55:42;;;;;;;4.23;1.83;;;;;;;;;;5008010;28;20293;-69
2021/10/21 07:58:08;;;;;;;4.90;1.83;;;;;;;;;;5002781;28;20186;-68
2021/10/21 08:00:38;;;;;;;7.53;2.30;;;;;;;;;;5020806;28;20264;-68
2021/10/21 08:03:04;;;;;;;5.47;2.00;;;;;;;;;;5034974;28;20553;-68
2021/10/21 08:05:32;;;;;;;4.80;2.30;;;;;;;;;;5010114;28;20210;-65
2021/10/21 08:08:11;;;;;;;6.50;2.20;;;;;;;;;;5007146;28;20273;-67
2021/10/21 08:10:40;;;;;;;4.00;2.23;;;;;;;;;;5023679;28;20537;-68
2021/10/21 08:13:06;;;;;;;6.43;2.20;;;;;;;;;;5003978;28;20510;-66
2021/10/21 08:15:36;;;;;;;8.47;2.07;;;;;;;;;;5008379;28;20205;-69
2021/10/21 08:18:05;;;;;;;4.23;2.17;;;;;;;;;;5007572;28;20174;-69
2021/10/21 08:20:32;;;;;;;8.80;2.27;;;;;;;;;;5008633;28;20173;-70
2021/10/21 08:23:04;;;;;;;4.73;2.30;;;;;;;;;;5025877;28;20178;-69
2021/10/21 08:25:31;;;;;;;8.77;3.03;;;;;;;;;;5010674;28;20174;-67
2021/10/21 08:28:10;;;;;;;6.00;2.70;;;;;;;;;;5019688;28;20189;-69
2021/10/21 08:30:43;;;;;;;9.30;2.87;;;;;;;;;;5009602;28;20192;-67
2021/10/21 08:33:14;;;;;;;10.47;3.40;;;;;;;;;;5007484;28;20205;-66
2021/10/21 08:35:43;;;;;;;6.60;3.27;;;;;;;;;;5008020;28;20197;-66
2021/10/21 08:38:13;;;;;;;7.07;3.30;;;;;;;;;;5009203;28;20170;-66
2021/10/21 08:40:42;;;;;;;8.20;3.50;;;;;;;;;;5018265;28;20191;-66
2021/10/21 08:43:18;;;;;;;9.90;4.20;;;;;;;;;;5007807;28;20201;-66
2021/10/21 08:45:47;;;;;;;9.03;3.80;;;;;;;;;;5025937;28;20189;-67
2021/10/21 08:51:07;;;;;;;11.23;4.07;;;;;;;;;;5022672;28;20218;-67
2021/10/21 08:53:36;;;;;;;8.90;4.63;;;;;;;;;;5014723;28;20188;-66
2021/10/21 08:56:04;;;;;;;7.00;3.87;;;;;;;;;;5031520;28;20205;-66
2021/10/21 08:58:35;;;;;;;8.93;4.20;;;;;;;;;;5009810;28;20260;-66
2021/10/21 09:01:13;;;;;;;18.73;4.47;;;;;;;;;;5024759;28;20247;-66
2021/10/21 09:03:41;;;;;;;14.20;6.87;;;;;;;;;;5005602;28;20174;-65
2021/10/21 09:09:26;;;;;;;16.93;5.73;;;;;;;;;;4952416;28;20347;-65
2021/10/21 09:12:11;;;;;;;10.13;5.47;;;;;;;;;;5014333;28;20470;-65
2021/10/21 09:14:47;;;;;;;9.13;5.20;;;;;;;;;;5008427;28;20436;-68
2021/10/21 09:17:14;;;;;;;11.30;4.67;;;;;;;;;;5027342;28;21974;-68
2021/10/21 09:19:41;;;;;;;14.83;5.03;;;;;;;;;;5010999;28;20186;-67
2021/10/21 09:22:34;;;;;;;13.53;4.13;;;;;;;;;;5009656;28;20178;-67
2021/10/21 09:25:11;;;;;;;13.67;3.97;;;;;;;;;;5029323;28;20237;-67
2021/10/21 09:27:48;;;;;;;8.07;3.53;;;;;;;;;;5020344;28;20174;-67
2021/10/21 09:30:28;;;;;;;9.47;3.33;;;;;;;;;;4964801;28;20343;-67
2021/10/21 09:33:03;;;;;;;12.30;3.17;;;;;;;;;;4964217;28;20270;-67
2021/10/21 09:35:38;;;;;;;6.33;3.73;;;;;;;;;;4951329;28;20230;-67
2021/10/21 09:38:07;;;;;;;14.37;3.67;;;;;;;;;;4959178;28;20653;-67
2021/10/21 09:40:35;;;;;;;8.50;2.77;;;;;;;;;;4951776;28;20187;-67
2021/10/21 09:43:15;;;;;;;6.47;3.90;;;;;;;;;;4962145;28;20624;-69
2021/10/21 09:45:52;;;;;;;5.73;2.97;;;;;;;;;;4953290;28;20591;-70
2021/10/21 09:48:23;;;;;;;9.40;3.80;;;;;;;;;;4965463;28;20195;-69
2021/10/21 09:51:02;;;;;;;10.70;3.33;;;;;;;;;;4938803;28;20202;-70
2021/10/21 09:53:29;;;;;;;6.20;2.93;;;;;;;;;;4956494;28;20265;-69
2021/10/21 09:56:09;;;;;;;4.63;3.13;;;;;;;;;;4967147;28;20215;-68
2021/10/21 09:58:36;;;;;;;7.33;3.13;;;;;;;;;;4966657;28;20175;-67
2021/10/21 10:01:27;;;;;;;9.67;2.70;;;;;;;;;;4968536;28;20476;-68
2021/10/21 10:04:26;;;;;;;7.67;2.60;;;;;;;;;;4961911;28;20585;-67
2021/10/21 10:06:58;;;;;;;7.57;2.73;;;;;;;;;;4914065;28;20226;-68
2021/10/21 10:09:26;;;;;;;5.30;2.87;;;;;;;;;;5006228;28;20175;-66
2021/10/21 10:11:56;;;;;;;7.30;2.60;;;;;;;;;;5007785;28;20732;-67
2021/10/21 10:14:25;;;;;;;4.80;2.27;;;;;;;;;;5010357;28;20221;-67
2021/10/21 10:16:51;;;;;;;8.23;2.30;;;;;;;;;;4999203;28;20254;-67
2021/10/21 10:19:17;;;;;;;6.87;2.30;;;;;;;;;;5012370;28;20258;-68
2021/10/21 10:21:53;;;;;;;9.27;3.33;;;;;;;;;;5009206;28;20171;-67
2021/10/21 10:24:35;;;;;;;7.40;3.13;;;;;;;;;;5010224;28;20178;-67
2021/10/21 10:27:27;;;;;;;3.97;2.20;;;;;;;;;;5009500;28;20566;-67
2021/10/21 10:29:54;;;;;;;3.87;2.50;;;;;;;;;;4984850;28;20282;-68
2021/10/21 10:32:36;;;;;;;5.03;2.43;;;;;;;;;;5008455;28;20185;-67
2021/10/21 10:35:39;;;;;;;5.57;3.40;;;;;;;;;;5011757;28;20562;-66
2021/10/21 10:38:25;;;;;;;5.20;2.67;;;;;;;;;;5003205;28;20269;-66
2021/10/21 10:41:19;;;;;;;7.33;3.23;;;;;;;;;;4990443;28;20200;-68
2021/10/21 10:43:55;;;;;;;13.00;3.43;;;;;;;;;;5007755;28;20175;-65
2021/10/21 10:46:43;;;;;;;5.83;2.93;;;;;;;;;;4994454;28;20268;-65
2021/10/21 10:49:32;;;;;;;8.83;4.07;;;;;;;;;;5009827;28;20182;-68
2021/10/21 10:51:59;;;;;;;8.73;3.30;;;;;;;;;;5005947;28;20748;-68
2021/10/21 10:54:45;;;;;;;5.73;3.23;;;;;;;;;;5008760;28;20581;-67
2021/10/21 10:57:18;;;;;;;11.50;4.10;;;;;;;;;;5004858;28;20199;-68
2021/10/21 10:59:47;;;;;;;7.43;4.23;;;;;;;;;;5008221;28;20207;-68
2021/10/21 11:02:25;;;;;;;12.33;5.10;;;;;;;;;;4998356;28;20714;-68
2021/10/21 11:04:55;;;;;;;11.37;4.30;;;;;;;;;;5012286;28;20182;-68
2021/10/21 11:07:23;;;;;;;9.73;3.90;;;;;;;;;;5013510;28;20209;-69
2021/10/21 11:09:50;;;;;;;9.50;4.13;;;;;;;;;;5013766;28;21260;-68
2021/10/21 11:12:20;;;;;;;7.47;3.23;;;;;;;;;;5028436;28;20216;-67
2021/10/21 11:14:55;;;;;;;5.27;3.27;;;;;;;;;;5026548;28;20532;-68
2021/10/21 11:17:48;;;;;;;7.70;3.50;;;;;;;;;;5014086;28;20187;-68
2021/10/21 11:20:27;;;;;;;7.33;3.43;;;;;;;;;;5003313;28;20186;-68
2021/10/21 11:23:04;;;;;;;6.47;3.13;;;;;;;;;;5011835;28;20186;-68
2021/10/21 11:25:34;;;;;;;7.87;3.20;;;;;;;;;;4995498;28;20636;-68
2021/10/21 11:28:00;;;;;;;7.30;3.60;;;;;;;;;;4965384;28;20507;-67
2021/10/21 11:30:31;;;;;;;5.40;2.90;;;;;;;;;;4971315;28;20977;-69
2021/10/21 11:32:58;;;;;;;5.20;2.50;;;;;;;;;;4972050;28;20926;-67
2021/10/21 11:35:50;;;;;;;4.13;2.73;;;;;;;;;;4990361;28;20206;-67
2021/10/21 11:38:25;;;;;;;4.40;2.20;;;;;;;;;;4964043;28;20595;-68
2021/10/21 11:40:53;;;;;;;3.63;2.30;;;;;;;;;;4967225;28;20252;-67
2021/10/21 11:43:27;;;;;;;2.90;2.03;;;;;;;;;;4986408;28;20673;-67
2021/10/21 11:46:19;;;;;;;3.33;1.90;;;;;;;;;;4970183;28;20198;-67
2021/10/21 11:49:16;;;;;;;8.10;2.57;;;;;;;;;;4987823;28;20278;-66
2021/10/21 11:51:47;;;;;;;3.47;2.23;;;;;;;;;;4989931;28;20298;-66
2021/10/21 11:57:20;;;;;;;2.93;1.87;;;;;;;;;;4974080;28;20199;-67
2021/10/21 11:59:46;;;;;;;3.00;2.33;;;;;;;;;;4992538;28;20167;-66
2021/10/21 12:02:31;;;;;;;7.17;2.23;;;;;;;;;;4995019;28;20190;-67
2021/10/21 12:04:58;;;;;;;2.27;1.53;;;;;;;;;;5009410;28;20181;-66
2021/10/21 12:07:31;;;;;;;2.70;1.67;;;;;;;;;;5009306;28;20209;-66
2021/10/21 12:09:57;;;;;;;3.17;1.97;;;;;;;;;;5011881;28;20217;-66
2021/10/21 12:12:36;;;;;;;3.27;1.47;;;;;;;;;;5028528;28;20537;-67
2021/10/21 12:15:03;;;;;;;3.60;1.53;;;;;;;;;;5010010;28;20194;-67
2021/10/21 12:17:29;;;;;;;4.83;1.23;;;;;;;;;;5009648;28;20265;-66
2021/10/21 12:20:01;;;;;;;2.17;1.20;;;;;;;;;;5016133;28;20566;-65
2021/10/21 12:22:37;;;;;;;2.43;1.10;;;;;;;;;;5006939;28;20170;-65
2021/10/21 12:25:08;;;;;;;1.73;1.20;;;;;;;;;;5008653;28;20193;-65
2021/10/21 12:27:37;;;;;;;2.53;1.60;;;;;;;;;;5009547;28;20916;-66
2021/10/21 12:30:18;;;;;;;3.73;1.50;;;;;;;;;;5026737;28;20948;-66
2021/10/21 12:33:18;;;;;;;;;;;;;;;;;;;;;
2021/10/21 12:36:06;;;;;;;1.97;1.30;;;;;;;;;;5028106;28;20269;-65
2021/10/21 12:38:58;;;;;;;1.37;1.27;;;;;;;;;;5024225;28;20185;-64
2021/10/21 12:41:47;;;;;;;3.57;2.17;;;;;;;;;;5010156;28;20201;-67
2021/10/21 12:44:15;;;;;;;2.47;1.77;;;;;;;;;;5010737;28;20303;-67
2021/10/21 12:46:41;;;;;;;2.87;2.10;;;;;;;;;;5009332;28;20264;-67
2021/10/21 12:49:18;;;;;;;3.77;2.40;;;;;;;;;;5010979;28;20193;-67
2021/10/21 12:54:36;;;;;;;4.90;2.33;;;;;;;;;;4996480;28;20181;-68
2021/10/21 12:57:03;;;;;;;4.57;2.63;;;;;;;;;;5027908;28;20268;-67
2021/10/21 12:59:42;;;;;;;3.60;2.40;;;;;;;;;;5011594;28;20668;-67
2021/10/21 13:02:18;;;;;;;4.00;2.57;;;;;;;;;;5028338;28;20177;-67
2021/10/21 13:04:49;;;;;;;5.60;2.83;;;;;;;;;;5013596;28;20182;-67
2021/10/21 13:07:27;;;;;;;7.37;3.40;;;;;;;;;;5026549;28;20268;-67
2021/10/21 13:09:54;;;;;;;4.87;3.60;;;;;;;;;;5018307;28;20601;-67
2021/10/21 13:12:43;;;;;;;5.73;3.33;;;;;;;;;;5002471;28;20213;-67
2021/10/21 13:15:10;;;;;;;7.87;2.80;;;;;;;;;;5008794;28;20308;-67
2021/10/21 13:17:36;;;;;;;8.67;2.70;;;;;;;;;;5008209;28;20201;-66
2021/10/21 13:20:02;;;;;;;4.27;2.53;;;;;;;;;;5008703;28;20239;-67
2021/10/21 13:22:32;;;;;;;6.33;2.97;;;;;;;;;;5010273;28;20174;-67
2021/10/21 13:25:08;;;;;;;2.20;1.97;;;;;;;;;;5032768;28;20275;-66
2021/10/21 13:27:41;;;;;;;3.80;1.80;;;;;;;;;;5010120;28;20658;-67
2021/10/21 13:30:08;;;;;;;4.93;2.07;;;;;;;;;;5010254;28;20181;-67
2021/10/21 13:32:35;;;;;;;4.23;2.40;;;;;;;;;;5011795;28;20188;-67
2021/10/21 13:35:22;;;;;;;2.17;1.80;;;;;;;;;;5029735;28;20272;-67
2021/10/21 13:37:54;;;;;;;2.93;1.70;;;;;;;;;;5011249;28;20198;-67
2021/10/21 13:40:26;;;;;;;6.47;1.67;;;;;;;;;;5013213;28;20177;-67
2021/10/21 13:42:53;;;;;;;5.23;1.87;;;;;;;;;;5011730;28;20177;-67
2021/10/21 13:45:21;;;;;;;2.83;1.60;;;;;;;;;;5022788;28;20178;-67
2021/10/21 13:47:50;;;;;;;4.13;1.53;;;;;;;;;;5011916;28;20667;-67
2021/10/21 13:50:26;;;;;;;2.57;1.27;;;;;;;;;;5027254;28;20177;-67
2021/10/21 13:53:04;;;;;;;3.10;1.67;;;;;;;;;;5006591;28;20402;-66
2021/10/21 13:55:32;;;;;;;1.50;1.30;;;;;;;;;;5007401;28;20656;-67
2021/10/21 13:57:58;;;;;;;2.27;1.30;;;;;;;;;;5006656;28;20590;-67
2021/10/21 14:00:28;;;;;;;1.90;1.10;;;;;;;;;;5010591;28;20177;-67
2021/10/21 14:03:22;;;;;;;;;;;;;;;;;;;;;
2021/10/21 14:06:09;;;;;;;3.20;1.13;;;;;;;;;;5027718;28;20186;-67
2021/10/21 14:09:02;;;;;;;1.50;1.10;;;;;;;;;;4990350;28;20206;-67
2021/10/21 14:11:42;;;;;;;2.13;1.20;;;;;;;;;;4994951;28;20186;-67
2021/10/21 14:14:23;;;;;;;1.93;1.13;;;;;;;;;;4990601;28;20186;-67
2021/10/21 14:16:55;;;;;;;1.07;0.97;;;;;;;;;;4989872;28;20225;-67
2021/10/21 14:19:31;;;;;;;1.30;1.00;;;;;;;;;;5008956;28;20197;-67
2021/10/21 14:22:03;;;;;;;3.60;1.30;;;;;;;;;;4994284;28;20524;-67
2021/10/21 14:24:34;;;;;;;1.30;1.00;;;;;;;;;;4994233;28;20577;-67
2021/10/21 14:27:17;;;;;;;1.10;1.00;;;;;;;;;;4985163;28;20538;-67
2021/10/21 14:29:47;;;;;;;1.00;0.90;;;;;;;;;;4989185;28;20269;-67
2021/10/21 14:32:13;;;;;;;0.97;0.97;;;;;;;;;;4984569;28;20739;-67
2021/10/21 14:34:48;;;;;;;2.73;1.57;;;;;;;;;;4989679;28;20179;-68
2021/10/21 14:37:18;;;;;;;1.10;0.97;;;;;;;;;;4991775;28;20174;-67
2021/10/21 14:39:53;;;;;;;1.03;0.97;;;;;;;;;;4988522;28;20633;-66
2021/10/21 14:42:20;;;;;;;5.70;1.13;;;;;;;;;;4996386;28;20185;-66
2021/10/21 14:44:52;;;;;;;1.10;1.00;;;;;;;;;;4999925;28;20181;-67
2021/10/21 14:47:41;;;;;;;0.80;0.80;;;;;;;;;;4998329;28;20253;-67
2021/10/21 14:50:13;;;;;;;1.10;0.90;;;;;;;;;;5001744;28;20468;-66
2021/10/21 14:52:40;;;;;;;2.10;0.90;;;;;;;;;;4994342;28;20509;-66
2021/10/21 14:55:15;;;;;;;3.07;1.23;;;;;;;;;;4992249;28;20564;-66
2021/10/21 14:57:47;;;;;;;3.10;1.10;;;;;;;;;;4992144;28;20224;-66
2021/10/21 15:00:13;;;;;;;2.87;1.23;;;;;;;;;;4991985;28;20675;-66
2021/10/21 15:02:40;;;;;;;3.07;1.53;;;;;;;;;;5012745;28;20166;-69
2021/10/21 15:05:46;;;;;;;1.00;0.90;;;;;;;;;;4994018;28;20174;-66
2021/10/21 15:25:07;;;;;;;3.90;1.30;;;;;;;;;;5025426;28;20188;-68
2021/10/21 15:27:50;;;;;;;2.63;1.30;;;;;;;;;;5007753;28;20542;-68
2021/10/21 15:30:16;;;;;;;4.07;1.30;;;;;;;;;;5000041;28;20288;-68
2021/10/21 15:32:49;;;;;;;2.60;1.30;;;;;;;;;;5021720;28;20196;-68
2021/10/21 15:35:15;;;;;;;1.73;0.83;;;;;;;;;;5008686;28;20213;-68
2021/10/21 15:37:48;;;;;;;3.00;1.50;;;;;;;;;;5024304;28;20189;-68
2021/10/21 15:40:17;;;;;;;2.90;1.17;;;;;;;;;;5009225;28;20719;-62
2021/10/21 15:42:52;;;;;;;2.33;1.10;;;;;;;;;;5005291;28;20182;-67
2021/10/21 15:48:19;;;;;;;4.23;1.23;;;;;;;;;;5024808;28;20290;-67
2021/10/21 16:10:23;;;;;;;2.43;1.60;;;;;;;;;;5022780;28;20189;-64
2021/10/21 16:12:53;;;;;;;3.10;1.40;;;;;;;;;;5023436;28;20213;-65
2021/10/21 16:15:19;;;;;;;4.33;1.53;;;;;;;;;;5006762;28;20264;-65
2021/10/21 16:18:07;;;;;;;1.90;1.43;;;;;;;;;;5024620;28;20178;-64
2021/10/21 16:20:33;;;;;;;4.00;1.93;;;;;;;;;;5018957;28;20201;-64
2021/10/21 16:23:03;;;;;;;2.27;1.27;;;;;;;;;;5006689;28;20181;-65